Eaglesham, United Kingdom
Current Conditions -  °F | °C
As of 4:20 AM on Wednesday 26 Nov 2014 (Local Time) from EGPF Reporting Station
Moderate Fog Moderate Fog  
Wind Chill: 37°   Ceiling: Unl
Heat Index: 37°   Visibility: 0.06mi
Dew Point: 37°   Wind: 3mph
Humidity: 100%   Direction: 210°SSW
Pressure: 30.06"   Gusts: NA
Location:  55.74°N, 4.27°W
Report Text: EGPF 260420Z AUTO 21003KT 0100 FG VV/// 03/03 Q1018
Loading
Personal Weather Stations






























Interactive Weather Map New forecast layout! Learn more

10-Day Weather Forecast

Advertisements
Track Severe Weather on mobile